Time;durP1;ratioP1;P1;durP2;ratioP2;P2;SDS_P1;SDS_P2;PMS_P1;PMS_P2;Temp;Humidity;BMP_temperature;BMP_pressure;BME280_temperature;BME280_humidity;BME280_pressure;Samples;Min_cycle;Max_cycle;Signal;HPM_P1;HPM_P2
2021/12/11 00:01:17;;;;;;;110.05;39.22;;;;;;;0.28;100.00;100572.72;5089230;28;20028;-74
2021/12/11 00:03:48;;;;;;;98.63;38.67;;;;;;;0.27;100.00;100578.56;5089178;28;20031;-73
2021/12/11 00:06:18;;;;;;;107.03;39.38;;;;;;;0.20;100.00;100584.88;5088675;28;20449;-73
2021/12/11 00:08:46;;;;;;;113.10;39.20;;;;;;;0.13;100.00;100574.28;5090724;28;20085;-72
2021/12/11 00:11:26;;;;;;;111.03;40.30;;;;;;;0.12;100.00;100586.03;5087395;28;20028;-72
2021/12/11 00:13:58;;;;;;;119.53;41.67;;;;;;;0.11;100.00;100596.91;5087948;28;20034;-72
2021/12/11 00:16:26;;;;;;;125.60;44.45;;;;;;;0.05;100.00;100604.09;5088230;28;20032;-73
2021/12/11 00:18:54;;;;;;;129.43;43.15;;;;;;;0.09;100.00;100610.25;5086982;28;20455;-73
2021/12/11 00:21:23;;;;;;;123.43;42.80;;;;;;;0.10;100.00;100614.50;5089000;28;20055;-71
2021/12/11 00:24:02;;;;;;;132.02;42.80;;;;;;;0.06;100.00;100617.59;5087849;28;20071;-72
2021/12/11 00:26:37;;;;;;;135.35;43.17;;;;;;;0.04;100.00;100625.09;5082400;28;20462;-71
2021/12/11 00:29:06;;;;;;;124.28;41.50;;;;;;;0.00;100.00;100628.22;5089093;28;20114;-71
2021/12/11 00:31:33;;;;;;;125.97;41.20;;;;;;;0.01;100.00;100632.50;5090650;28;20158;-72
2021/12/11 00:33:59;;;;;;;119.65;40.83;;;;;;;-0.06;100.00;100638.78;5089376;28;20102;-72
2021/12/11 00:36:32;;;;;;;137.80;43.47;;;;;;;-0.08;100.00;100647.91;5085572;28;20032;-72
2021/12/11 00:39:05;;;;;;;122.90;40.22;;;;;;;-0.11;100.00;100650.25;5090235;28;20023;-72
2021/12/11 00:41:33;;;;;;;130.90;41.22;;;;;;;-0.16;100.00;100646.53;5082281;28;20157;-72
2021/12/11 00:44:01;;;;;;;144.40;42.22;;;;;;;-0.15;100.00;100654.97;5090703;28;20067;-72
2021/12/11 00:46:28;;;;;;;128.18;39.50;;;;;;;-0.19;100.00;100661.47;5084612;28;20035;-73
2021/12/11 00:49:05;;;;;;;139.20;40.97;;;;;;;-0.23;100.00;100666.25;5089351;28;20170;-72
2021/12/11 00:51:31;;;;;;;139.77;41.28;;;;;;;-0.27;100.00;100678.66;5090156;28;20039;-72
2021/12/11 00:53:58;;;;;;;139.18;41.60;;;;;;;-0.27;100.00;100676.13;5089457;28;20028;-72
2021/12/11 00:56:36;;;;;;;138.88;41.08;;;;;;;-0.35;100.00;100678.91;5089922;28;20028;-73
2021/12/11 00:59:08;;;;;;;127.93;40.50;;;;;;;-0.34;100.00;100684.06;5091563;28;20047;-73
2021/12/11 01:01:38;;;;;;;143.65;43.38;;;;;;;-0.36;100.00;100688.16;5091650;28;20027;-72
2021/12/11 01:04:10;;;;;;;137.82;41.05;;;;;;;-0.34;100.00;100693.28;5087834;28;20032;-72
2021/12/11 01:06:49;;;;;;;144.90;41.80;;;;;;;-0.44;100.00;100694.28;5090280;28;20039;-72
2021/12/11 01:09:20;;;;;;;131.25;41.20;;;;;;;-0.44;100.00;100698.47;5092119;28;20478;-72
2021/12/11 01:11:58;;;;;;;148.65;42.17;;;;;;;-0.46;100.00;100707.59;5089247;28;20027;-73
2021/12/11 01:14:38;;;;;;;144.93;42.70;;;;;;;-0.47;100.00;100701.69;5083982;28;20043;-72
2021/12/11 01:17:20;;;;;;;153.27;43.28;;;;;;;-0.44;100.00;100711.09;5086798;28;20016;-72
2021/12/11 01:19:50;;;;;;;139.45;42.42;;;;;;;-0.45;100.00;100711.88;5089275;28;20556;-71
2021/12/11 01:22:31;;;;;;;156.77;43.72;;;;;;;-0.40;100.00;100723.19;5088622;28;20028;-72
2021/12/11 01:24:57;;;;;;;151.98;42.85;;;;;;;-0.38;100.00;100730.09;5088442;28;20043;-71
2021/12/11 01:27:26;;;;;;;163.95;44.72;;;;;;;-0.42;100.00;100737.38;5089682;28;20032;-72
2021/12/11 01:29:56;;;;;;;154.48;42.47;;;;;;;-0.49;100.00;100748.66;5090803;28;20078;-72
2021/12/11 01:32:23;;;;;;;144.85;42.10;;;;;;;-0.47;100.00;100748.78;5092943;28;20526;-72
2021/12/11 01:34:49;;;;;;;143.23;43.42;;;;;;;-0.48;100.00;100755.50;5090991;28;20483;-73
2021/12/11 01:37:15;;;;;;;146.48;44.55;;;;;;;-0.45;100.00;100759.88;5093602;28;20036;-72
2021/12/11 01:39:41;;;;;;;150.98;42.22;;;;;;;-0.50;100.00;100761.19;5093984;28;20048;-73
2021/12/11 01:42:18;;;;;;;133.13;41.20;;;;;;;-0.55;100.00;100768.44;5084667;28;20683;-72
2021/12/11 01:44:47;;;;;;;139.07;41.33;;;;;;;-0.59;100.00;100774.94;5092558;28;20039;-71
2021/12/11 01:47:16;;;;;;;146.37;41.47;;;;;;;-0.58;100.00;100783.41;5094120;28;20154;-73
2021/12/11 01:49:44;;;;;;;137.13;41.85;;;;;;;-0.59;100.00;100780.00;5093612;28;20106;-72
2021/12/11 01:52:30;;;;;;;144.50;42.28;;;;;;;-0.60;100.00;100790.88;5093503;28;20028;-72
2021/12/11 01:54:59;;;;;;;140.10;41.33;;;;;;;-0.58;100.00;100794.38;5090800;28;20032;-72
2021/12/11 01:57:28;;;;;;;130.68;39.42;;;;;;;-0.63;100.00;100805.78;5097299;28;20470;-73
2021/12/11 02:00:04;;;;;;;139.23;40.20;;;;;;;-0.71;100.00;100809.44;5092441;28;20043;-71
2021/12/11 02:02:37;;;;;;;124.95;38.38;;;;;;;-0.76;100.00;100815.78;5095425;28;20374;-71
2021/12/11 02:05:05;;;;;;;124.65;39.55;;;;;;;-0.73;100.00;100822.69;5086863;28;20466;-72
2021/12/11 02:07:37;;;;;;;122.45;38.10;;;;;;;-0.81;100.00;100825.53;5093753;28;20044;-72
2021/12/11 02:10:10;;;;;;;120.88;39.35;;;;;;;-0.77;100.00;100838.41;5092696;28;20027;-72
2021/12/11 02:12:40;;;;;;;133.80;40.10;;;;;;;-0.79;100.00;100843.31;5093389;28;20036;-71
2021/12/11 02:15:10;;;;;;;132.95;40.78;;;;;;;-0.82;100.00;100838.06;5090879;28;20476;-71
2021/12/11 02:17:41;;;;;;;126.57;38.30;;;;;;;-0.82;100.00;100843.13;5096162;28;20030;-71
2021/12/11 02:20:12;;;;;;;129.30;40.65;;;;;;;-0.81;100.00;100850.78;5093111;28;20442;-71
2021/12/11 02:22:43;;;;;;;144.50;40.00;;;;;;;-0.86;100.00;100847.03;5095202;28;20111;-72
2021/12/11 02:25:14;;;;;;;129.57;40.70;;;;;;;-0.84;100.00;100857.28;5091807;28;20023;-72
2021/12/11 02:27:45;;;;;;;142.40;39.63;;;;;;;-0.81;100.00;100857.50;5092054;28;20031;-71
2021/12/11 02:30:26;;;;;;;146.07;43.10;;;;;;;-0.82;100.00;100855.72;5089804;28;20047;-74
2021/12/11 02:33:13;;;;;;;156.25;43.80;;;;;;;-0.72;100.00;100873.31;5090606;28;20089;-72
2021/12/11 02:35:54;;;;;;;153.15;43.50;;;;;;;-0.68;100.00;100870.22;5099031;28;20024;-73
2021/12/11 02:38:33;;;;;;;155.23;46.08;;;;;;;-0.63;100.00;100879.03;5091990;28;20028;-73
2021/12/11 02:41:19;;;;;;;187.05;49.05;;;;;;;-0.60;100.00;100881.78;5089426;28;20073;-72
2021/12/11 02:43:54;;;;;;;175.10;44.20;;;;;;;-0.58;100.00;100877.72;5090128;28;20040;-71
2021/12/11 02:46:30;;;;;;;146.35;43.85;;;;;;;-0.54;100.00;100888.94;5092479;28;20382;-71
2021/12/11 02:49:10;;;;;;;167.18;46.65;;;;;;;-0.49;100.00;100892.66;5088564;28;20035;-71
2021/12/11 02:51:51;;;;;;;163.98;45.58;;;;;;;-0.49;100.00;100894.28;5090178;28;20029;-72
2021/12/11 02:54:22;;;;;;;160.30;44.78;;;;;;;-0.46;100.00;100897.94;5088266;28;20031;-71
2021/12/11 02:56:54;;;;;;;159.20;44.05;;;;;;;-0.43;100.00;100900.66;5092548;28;20028;-71
2021/12/11 02:59:25;;;;;;;150.63;43.13;;;;;;;-0.42;100.00;100906.63;5089539;28;20105;-72
2021/12/11 03:02:09;;;;;;;148.38;44.03;;;;;;;-0.46;100.00;100908.03;5087708;28;20153;-73
2021/12/11 03:04:39;;;;;;;158.82;43.75;;;;;;;-0.46;100.00;100914.75;5090924;28;20024;-71
2021/12/11 03:07:09;;;;;;;153.57;43.85;;;;;;;-0.47;100.00;100910.47;5090110;28;20032;-73
2021/12/11 03:09:40;;;;;;;140.10;42.83;;;;;;;-0.50;100.00;100922.84;5086984;28;20036;-73
2021/12/11 03:12:11;;;;;;;136.80;41.25;;;;;;;-0.52;100.00;100921.88;5088875;28;20034;-72
2021/12/11 03:14:38;;;;;;;138.00;41.42;;;;;;;-0.52;100.00;100931.97;5090440;28;20043;-73
2021/12/11 03:17:05;;;;;;;128.88;41.33;;;;;;;-0.53;100.00;100936.16;5091205;28;20023;-73
2021/12/11 03:19:32;;;;;;;140.07;41.55;;;;;;;-0.52;100.00;100940.44;5089286;28;20098;-72
2021/12/11 03:22:00;;;;;;;136.15;42.30;;;;;;;-0.55;100.00;100933.53;5092165;28;20066;-72
2021/12/11 03:24:28;;;;;;;137.02;41.88;;;;;;;-0.58;100.00;100937.44;5091450;28;20024;-72
2021/12/11 03:26:55;;;;;;;133.95;40.72;;;;;;;-0.61;100.00;100942.25;5092858;28;20020;-72
2021/12/11 03:29:21;;;;;;;131.48;39.15;;;;;;;-0.66;100.00;100943.59;5097258;28;20107;-72
2021/12/11 03:31:48;;;;;;;119.00;37.97;;;;;;;-0.70;100.00;100952.56;5088606;28;20078;-71
2021/12/11 03:34:21;;;;;;;118.00;38.08;;;;;;;-0.72;100.00;100945.66;5091028;28;20028;-71
2021/12/11 03:36:47;;;;;;;121.18;38.53;;;;;;;-0.72;100.00;100956.66;5090891;28;20059;-73
2021/12/11 03:39:17;;;;;;;114.20;37.95;;;;;;;-0.75;100.00;100956.41;5088457;28;20514;-73
2021/12/11 03:41:45;;;;;;;118.07;38.25;;;;;;;-0.77;100.00;100960.47;5089694;28;20427;-71
2021/12/11 03:44:11;;;;;;;110.15;36.75;;;;;;;-0.79;100.00;100961.09;5089543;28;20125;-71
2021/12/11 03:46:37;;;;;;;114.03;36.60;;;;;;;-0.78;100.00;100962.88;5087570;28;20031;-71
2021/12/11 03:49:11;;;;;;;114.95;37.80;;;;;;;-0.78;100.00;100967.94;5091543;28;20596;-71
2021/12/11 03:51:39;;;;;;;118.60;36.53;;;;;;;-0.76;100.00;100964.75;5090539;28;20035;-70
2021/12/11 03:54:08;;;;;;;112.55;36.63;;;;;;;-0.75;100.00;100969.03;5090661;28;20142;-72
2021/12/11 03:56:35;;;;;;;111.75;35.83;;;;;;;-0.75;100.00;100963.09;5086515;28;20032;-72
2021/12/11 03:59:08;;;;;;;114.40;37.28;;;;;;;-0.76;100.00;100967.28;5089660;28;20028;-73
2021/12/11 04:01:40;;;;;;;117.18;36.20;;;;;;;-0.76;100.00;100968.91;5084694;28;20028;-72
2021/12/11 04:04:11;;;;;;;108.18;36.10;;;;;;;-0.78;100.00;100966.28;5089276;28;20114;-72
2021/12/11 04:06:37;;;;;;;116.13;37.78;;;;;;;-0.78;100.00;100971.34;5088707;28;20098;-71
2021/12/11 04:09:07;;;;;;;123.70;38.15;;;;;;;-0.72;100.00;100979.38;5090622;28;20422;-72
2021/12/11 04:11:35;;;;;;;147.20;41.20;;;;;;;-0.66;100.00;100979.81;5087877;28;20089;-70
2021/12/11 04:14:08;;;;;;;155.55;40.95;;;;;;;-0.58;100.00;100978.75;5087340;28;20032;-70
2021/12/11 04:16:34;;;;;;;161.18;42.03;;;;;;;-0.44;100.00;100999.97;5087245;28;20390;-74
2021/12/11 04:19:01;;;;;;;152.93;42.15;;;;;;;-0.33;100.00;100986.47;5089945;28;20059;-71
2021/12/11 04:21:27;;;;;;;152.48;41.63;;;;;;;-0.31;100.00;100989.09;5088063;28;20031;-71
2021/12/11 04:23:52;;;;;;;148.52;40.13;;;;;;;-0.23;100.00;101002.31;5085096;28;20386;-72
2021/12/11 04:26:18;;;;;;;153.27;40.97;;;;;;;-0.18;100.00;101006.94;5093283;28;20059;-70
2021/12/11 04:28:46;;;;;;;160.60;40.75;;;;;;;-0.16;100.00;101005.41;5090329;28;20117;-71
2021/12/11 04:31:17;;;;;;;161.95;42.13;;;;;;;-0.11;100.00;101015.84;5089523;28;20058;-71
2021/12/11 04:33:46;;;;;;;143.63;40.70;;;;;;;-0.04;100.00;101013.88;5093869;28;20039;-72
2021/12/11 04:36:17;;;;;;;155.90;40.33;;;;;;;0.01;100.00;101018.41;5088824;28;20027;-72
2021/12/11 04:38:44;;;;;;;181.23;41.95;;;;;;;0.01;100.00;101015.88;5089168;28;20039;-74
2021/12/11 04:41:17;;;;;;;163.30;42.03;;;;;;;0.05;100.00;101023.75;5086734;28;20106;-74
2021/12/11 04:43:43;;;;;;;157.93;41.15;;;;;;;0.17;100.00;101029.69;5088510;28;20073;-73
2021/12/11 04:46:10;;;;;;;178.25;43.15;;;;;;;0.22;100.00;101035.09;5091198;28;20031;-73
2021/12/11 04:49:00;;;;;;;172.10;40.58;;;;;;;0.26;100.00;101040.50;5090187;28;20040;-73
2021/12/11 05:05:09;;;;;;;171.57;41.97;;;;;;;0.45;100.00;101054.44;5083206;28;20411;-73
2021/12/11 05:10:17;;;;;;;189.70;45.55;;;;;;;0.47;100.00;101058.84;5088480;28;20119;-73
2021/12/11 05:12:46;;;;;;;198.95;46.50;;;;;;;0.52;100.00;101062.56;5086422;28;21529;-73
2021/12/11 05:15:19;;;;;;;182.97;44.53;;;;;;;0.59;100.00;101074.00;5087922;28;20468;-73
2021/12/11 05:17:45;;;;;;;204.73;46.55;;;;;;;0.63;100.00;101078.53;5086918;28;20028;-73
2021/12/11 05:20:15;;;;;;;188.90;47.38;;;;;;;0.67;100.00;101088.09;5085048;28;20020;-73
2021/12/11 05:22:41;;;;;;;198.10;47.42;;;;;;;0.69;100.00;101078.09;5087884;28;20028;-75
2021/12/11 05:25:10;;;;;;;201.23;48.05;;;;;;;0.75;100.00;101078.53;5085492;28;20398;-73
2021/12/11 05:27:36;;;;;;;222.38;50.17;;;;;;;0.78;100.00;101076.19;5090172;28;20036;-71
2021/12/11 05:30:06;;;;;;;219.73;48.55;;;;;;;0.78;100.00;101076.19;5085220;28;20036;-74
2021/12/11 05:32:32;;;;;;;197.73;47.72;;;;;;;0.75;100.00;101086.13;5085969;28;20029;-72
2021/12/11 05:34:58;;;;;;;210.82;48.78;;;;;;;0.70;100.00;101088.31;5084850;28;20036;-75
2021/12/11 05:37:24;;;;;;;184.30;46.97;;;;;;;0.69;100.00;101085.69;5089666;28;20036;-73
2021/12/11 05:39:50;;;;;;;189.18;48.38;;;;;;;0.71;100.00;101094.25;5085900;28;20020;-73
2021/12/11 05:42:15;;;;;;;205.30;49.17;;;;;;;0.73;100.00;101093.59;5081916;28;20086;-72
2021/12/11 05:44:41;;;;;;;204.45;48.63;;;;;;;0.76;100.00;101092.94;5086492;28;20044;-71
2021/12/11 05:47:07;;;;;;;212.35;48.72;;;;;;;0.76;100.00;101093.81;5084056;28;20025;-71
2021/12/11 05:49:35;;;;;;;194.52;46.75;;;;;;;0.82;100.00;101100.97;5083207;28;20024;-72
2021/12/11 05:52:03;;;;;;;204.32;48.20;;;;;;;0.86;100.00;101104.59;5085996;28;20110;-72
2021/12/11 05:54:29;;;;;;;217.18;47.95;;;;;;;0.89;100.00;101107.31;5089392;28;20114;-73
2021/12/11 05:57:01;;;;;;;194.15;45.67;;;;;;;0.89;100.00;101109.84;5068173;28;20194;-72
2021/12/11 05:59:27;;;;;;;191.40;46.80;;;;;;;0.92;100.00;101118.56;5087296;28;20481;-71
2021/12/11 06:02:00;;;;;;;203.95;48.22;;;;;;;0.91;100.00;101113.38;5089571;28;20076;-73
2021/12/11 06:04:31;;;;;;;180.75;46.90;;;;;;;0.96;100.00;101102.78;5089068;28;20020;-72
2021/12/11 06:06:58;;;;;;;215.05;49.45;;;;;;;0.94;100.00;101109.41;5085653;28;20027;-74
2021/12/11 06:09:26;;;;;;;200.32;47.65;;;;;;;0.86;100.00;101115.59;5086038;28;20028;-72
2021/12/11 06:11:57;;;;;;;189.02;45.42;;;;;;;0.88;100.00;101118.22;5085679;28;20032;-74
2021/12/11 06:14:23;;;;;;;194.48;46.70;;;;;;;0.87;100.00;101122.41;5086867;28;20032;-74
2021/12/11 06:16:52;;;;;;;180.68;43.67;;;;;;;0.89;100.00;101122.50;5088587;28;20024;-71
2021/12/11 06:19:21;;;;;;;168.98;42.90;;;;;;;0.91;100.00;101124.41;5089247;28;20043;-72
2021/12/11 06:21:47;;;;;;;163.63;41.63;;;;;;;0.92;100.00;101128.69;5088153;28;20045;-72
2021/12/11 06:24:12;;;;;;;174.50;43.85;;;;;;;1.01;100.00;101136.03;5088922;28;20028;-73
2021/12/11 06:26:38;;;;;;;178.70;45.72;;;;;;;1.04;100.00;101134.63;5091192;28;20035;-73
2021/12/11 06:29:04;;;;;;;183.48;45.95;;;;;;;1.09;100.00;101132.38;5090537;28;20035;-75
2021/12/11 06:31:30;;;;;;;170.20;42.22;;;;;;;1.12;100.00;101142.75;5085151;28;20032;-74
2021/12/11 06:33:55;;;;;;;174.65;43.50;;;;;;;1.12;100.00;101139.34;5090856;28;20047;-71
2021/12/11 06:36:23;;;;;;;166.98;43.15;;;;;;;1.14;100.00;101143.72;5086545;28;20028;-73
2021/12/11 06:38:55;;;;;;;170.35;44.45;;;;;;;1.16;100.00;101143.84;5089660;28;20034;-73
2021/12/11 06:41:26;;;;;;;166.55;43.28;;;;;;;1.21;100.00;101152.63;5089101;28;20031;-73
2021/12/11 06:43:51;;;;;;;163.07;42.33;;;;;;;1.23;100.00;101143.50;5089874;28;20036;-72
2021/12/11 06:46:18;;;;;;;153.07;38.00;;;;;;;1.33;100.00;101158.53;5088473;28;20390;-72
2021/12/11 06:48:43;;;;;;;152.52;40.30;;;;;;;1.37;100.00;101160.53;5091176;28;20035;-73
2021/12/11 06:51:09;;;;;;;157.80;42.35;;;;;;;1.40;100.00;101170.88;5085456;28;20032;-72
2021/12/11 06:53:43;;;;;;;175.13;44.95;;;;;;;1.42;100.00;101165.91;5091401;28;20101;-73
2021/12/11 06:56:11;;;;;;;176.88;47.55;;;;;;;1.48;100.00;101174.81;5092051;28;20452;-73
2021/12/11 06:58:36;;;;;;;189.15;46.50;;;;;;;1.52;100.00;101178.47;5095514;28;21768;-72
2021/12/11 07:01:04;;;;;;;224.77;50.70;;;;;;;1.59;100.00;101180.63;5092605;28;20020;-73
2021/12/11 07:03:30;;;;;;;204.70;49.90;;;;;;;1.65;100.00;101190.31;5106158;28;20027;-73
2021/12/11 07:05:56;;;;;;;190.02;48.05;;;;;;;1.73;100.00;101189.19;5091504;28;20489;-72
2021/12/11 07:08:23;;;;;;;169.52;45.97;;;;;;;1.71;100.00;101190.75;5095813;28;20043;-72
2021/12/11 07:10:49;;;;;;;180.27;47.75;;;;;;;1.79;100.00;101194.66;5092853;28;20024;-72
2021/12/11 07:13:15;;;;;;;178.88;48.15;;;;;;;1.76;100.00;101207.13;5091611;28;20032;-72
2021/12/11 07:15:41;;;;;;;200.25;48.50;;;;;;;1.79;100.00;101202.28;5090220;28;20027;-72
2021/12/11 07:18:07;;;;;;;192.43;51.80;;;;;;;1.79;100.00;101198.09;5090775;28;20040;-72
2021/12/11 07:20:32;;;;;;;177.48;47.60;;;;;;;1.85;100.00;101202.69;5089792;28;20078;-72
2021/12/11 07:22:58;;;;;;;171.57;49.47;;;;;;;1.90;100.00;101213.16;5088369;28;20095;-71
2021/12/11 07:25:39;;;;;;;178.10;50.05;;;;;;;1.92;100.00;101211.59;5089348;28;20028;-72
2021/12/11 07:28:08;;;;;;;181.60;50.28;;;;;;;1.95;100.00;101212.69;5090067;28;20039;-72
2021/12/11 07:30:35;;;;;;;165.00;50.90;;;;;;;1.99;100.00;101222.25;5086922;28;20114;-72
2021/12/11 07:33:04;;;;;;;170.13;49.58;;;;;;;2.01;100.00;101220.72;5095159;28;20032;-73
2021/12/11 07:35:31;;;;;;;159.88;47.33;;;;;;;2.05;100.00;101225.19;5090650;28;20024;-73
2021/12/11 07:37:57;;;;;;;156.60;48.33;;;;;;;2.11;100.00;101220.53;5091400;28;20541;-73
2021/12/11 07:40:27;;;;;;;149.93;45.33;;;;;;;2.17;100.00;101221.75;5092928;28;20508;-72
2021/12/11 07:42:54;;;;;;;148.50;47.35;;;;;;;2.18;100.00;101231.97;5088239;28;20020;-72
2021/12/11 07:45:20;;;;;;;143.85;47.13;;;;;;;2.19;100.00;101223.63;5093524;28;20051;-73
2021/12/11 07:47:45;;;;;;;146.35;46.17;;;;;;;2.23;100.00;101240.78;5091856;28;20047;-73
2021/12/11 07:50:12;;;;;;;137.95;45.55;;;;;;;2.26;100.00;101235.06;5089360;28;20032;-72
2021/12/11 07:52:38;;;;;;;143.95;45.88;;;;;;;2.30;100.00;101239.53;5094040;28;20035;-73
2021/12/11 07:55:05;;;;;;;132.63;46.42;;;;;;;2.34;100.00;101246.59;5091284;28;20059;-72
2021/12/11 07:57:30;;;;;;;140.00;46.10;;;;;;;2.40;100.00;101254.63;5087735;28;20082;-72
2021/12/11 07:59:56;;;;;;;137.52;44.95;;;;;;;2.38;100.00;101253.66;5086138;28;20074;-72
2021/12/11 08:02:21;;;;;;;129.13;42.45;;;;;;;2.40;100.00;101259.69;5089786;28;20510;-72
2021/12/11 08:04:49;;;;;;;131.60;42.60;;;;;;;2.40;100.00;101258.03;5088987;28;20383;-72
2021/12/11 08:07:15;;;;;;;124.57;39.90;;;;;;;2.39;100.00;101255.41;5089409;28;20051;-73
2021/12/11 08:09:40;;;;;;;103.95;36.30;;;;;;;2.38;100.00;101271.41;5090835;28;20028;-71
2021/12/11 08:12:07;;;;;;;109.45;35.97;;;;;;;2.39;100.00;101270.63;5094037;28;20048;-71
2021/12/11 08:14:33;;;;;;;106.35;34.63;;;;;;;2.41;100.00;101267.41;5092247;28;20529;-72
2021/12/11 08:17:04;;;;;;;101.63;34.45;;;;;;;2.42;100.00;101276.75;5090368;28;20463;-72
2021/12/11 08:19:30;;;;;;;102.93;34.22;;;;;;;2.47;100.00;101279.63;5086453;28;20123;-72
2021/12/11 08:21:59;;;;;;;88.55;31.13;;;;;;;2.48;100.00;101278.84;5058454;28;20039;-71
2021/12/11 08:24:28;;;;;;;87.90;31.67;;;;;;;2.53;100.00;101300.34;5087523;28;20027;-72
2021/12/11 08:26:58;;;;;;;93.05;29.42;;;;;;;2.60;100.00;101305.03;5090622;28;20024;-71
2021/12/11 08:29:24;;;;;;;91.13;27.30;;;;;;;2.78;100.00;101319.75;5089188;28;20036;-71
2021/12/11 08:31:53;;;;;;;78.43;25.15;;;;;;;2.88;100.00;101324.66;5092220;28;20034;-72
2021/12/11 08:34:19;;;;;;;76.18;25.67;;;;;;;2.97;100.00;101325.25;5089177;28;20036;-72
2021/12/11 08:36:45;;;;;;;71.57;24.00;;;;;;;2.99;100.00;101330.47;5091198;28;20058;-74
2021/12/11 08:39:14;;;;;;;61.70;19.98;;;;;;;3.03;100.00;101340.03;5084829;28;20012;-72
2021/12/11 08:41:41;;;;;;;58.38;20.23;;;;;;;3.05;100.00;101341.91;5091464;28;20028;-71
2021/12/11 08:44:13;;;;;;;57.10;19.40;;;;;;;3.12;100.00;101344.06;5090294;28;20474;-72
2021/12/11 08:46:42;;;;;;;55.95;17.85;;;;;;;3.17;100.00;101340.16;5091497;28;20051;-72
2021/12/11 08:49:12;;;;;;;48.47;15.40;;;;;;;3.22;100.00;101348.97;5090925;28;20016;-71
2021/12/11 08:51:37;;;;;;;44.15;16.92;;;;;;;3.34;100.00;101353.09;5087411;28;20101;-70
2021/12/11 08:54:05;;;;;;;45.80;13.88;;;;;;;3.41;100.00;101357.78;5089192;28;20020;-74
2021/12/11 08:56:30;;;;;;;46.70;12.93;;;;;;;3.47;100.00;101378.53;5090319;28;20787;-74
2021/12/11 08:58:56;;;;;;;46.67;13.90;;;;;;;3.48;100.00;101367.56;5090278;28;20073;-71
2021/12/11 09:01:30;;;;;;;44.25;12.80;;;;;;;3.53;100.00;101384.00;5090066;28;20059;-73
2021/12/11 09:04:17;;;;;;;43.65;11.45;;;;;;;3.60;100.00;101386.16;5088596;28;20031;-74
2021/12/11 09:07:05;;;;;;;36.38;12.10;;;;;;;3.66;100.00;101391.63;5090391;28;20411;-72
2021/12/11 09:09:46;;;;;;;34.28;10.90;;;;;;;3.73;100.00;101398.88;5091692;28;20837;-71
2021/12/11 09:12:30;;;;;;;40.97;11.52;;;;;;;3.83;100.00;101409.63;5091233;28;20381;-72
2021/12/11 09:15:02;;;;;;;38.58;12.10;;;;;;;3.91;100.00;101418.63;5091704;28;20035;-71
2021/12/11 09:17:37;;;;;;;50.85;12.52;;;;;;;3.97;100.00;101429.19;5089661;28;20024;-72
2021/12/11 09:20:30;;;;;;;40.40;11.73;;;;;;;4.07;100.00;101439.19;5090769;28;20104;-71
2021/12/11 09:23:12;;;;;;;37.33;12.73;;;;;;;4.10;100.00;101441.91;5089624;28;20032;-72
2021/12/11 09:25:53;;;;;;;41.65;15.50;;;;;;;4.11;100.00;101453.84;5086688;28;20028;-72
2021/12/11 09:28:23;;;;;;;47.05;15.10;;;;;;;4.12;100.00;101450.50;5087134;28;20116;-71
2021/12/11 09:31:23;;;;;;;54.15;17.33;;;;;;;4.16;100.00;101457.56;5081656;28;20024;-72
2021/12/11 09:33:54;;;;;;;60.72;20.50;;;;;;;4.20;100.00;101467.16;5083508;28;20492;-71
2021/12/11 09:36:31;;;;;;;71.85;24.38;;;;;;;4.19;100.00;101461.97;5083558;28;20073;-72
2021/12/11 09:39:13;;;;;;;80.25;27.60;;;;;;;4.27;100.00;101468.44;5082701;28;20070;-72
2021/12/11 09:41:39;;;;;;;93.75;30.98;;;;;;;4.33;100.00;101475.56;5090007;28;20058;-73
2021/12/11 09:44:12;;;;;;;91.53;32.90;;;;;;;4.36;100.00;101488.47;5085225;28;20542;-73
2021/12/11 09:46:49;;;;;;;89.78;33.47;;;;;;;4.42;100.00;101496.50;5085652;28;20028;-71
2021/12/11 09:49:19;;;;;;;95.13;34.03;;;;;;;4.44;100.00;101500.94;5083833;28;20020;-72
2021/12/11 09:51:47;;;;;;;90.40;34.50;;;;;;;4.46;100.00;101498.47;5094757;28;20024;-72
2021/12/11 09:54:23;;;;;;;90.28;34.67;;;;;;;4.54;100.00;101499.81;5093720;28;20096;-71
2021/12/11 09:57:20;;;;;;;93.28;36.22;;;;;;;4.65;100.00;101514.09;5094317;28;20020;-71
2021/12/11 09:59:48;;;;;;;99.30;35.72;;;;;;;4.71;100.00;101508.50;5087376;28;20048;-70
2021/12/11 10:02:26;;;;;;;92.28;36.17;;;;;;;4.79;100.00;101508.22;5096116;28;20020;-70
2021/12/11 10:05:19;;;;;;;86.03;34.90;;;;;;;4.82;100.00;101510.06;5087409;28;20027;-70
2021/12/11 10:08:13;;;;;;;82.38;34.05;;;;;;;4.85;100.00;101515.31;5091021;28;20066;-70
2021/12/11 10:10:31;;;;;;;80.50;34.85;;;;;;;4.83;100.00;101514.34;5093533;28;20442;-69
2021/12/11 10:12:58;;;;;;;78.18;33.88;;;;;;;4.84;100.00;101524.63;5080942;28;20063;-72
2021/12/11 10:15:23;;;;;;;77.57;32.95;;;;;;;4.83;100.00;101532.19;5092862;28;20028;-69
2021/12/11 10:18:11;;;;;;;72.78;32.65;;;;;;;4.87;100.00;101531.59;5090865;28;20544;-70
2021/12/11 10:21:03;;;;;;;71.38;32.33;;;;;;;4.90;100.00;101536.88;5098417;28;20028;-71
2021/12/11 10:23:31;;;;;;;78.45;32.45;;;;;;;5.04;100.00;101550.50;5093423;28;20024;-74
2021/12/11 10:26:00;;;;;;;68.05;32.67;;;;;;;5.14;100.00;101560.44;5091060;28;20378;-71
2021/12/11 10:28:28;;;;;;;68.78;32.33;;;;;;;5.11;100.00;101566.25;5092515;28;20072;-71
2021/12/11 10:31:01;;;;;;;63.70;31.65;;;;;;;5.16;100.00;101556.34;5092251;28;20032;-71
2021/12/11 10:33:29;;;;;;;69.03;32.92;;;;;;;5.27;100.00;101564.59;5095525;28;20039;-71
2021/12/11 10:35:57;;;;;;;69.07;33.67;;;;;;;5.43;100.00;101558.78;5086965;28;20032;-70
2021/12/11 10:38:24;;;;;;;74.47;34.90;;;;;;;5.77;100.00;101551.44;5085967;28;20024;-69
2021/12/11 10:40:54;;;;;;;72.25;33.65;;;;;;;6.10;100.00;101560.19;5090924;28;20486;-69
2021/12/11 10:43:29;;;;;;;56.97;31.90;;;;;;;7.05;100.00;101557.78;5091618;28;20102;-70
2021/12/11 10:45:57;;;;;;;41.53;24.95;;;;;;;7.59;100.00;101566.56;5094068;28;20054;-70
2021/12/11 10:48:27;;;;;;;42.42;25.48;;;;;;;7.67;100.00;101565.28;5089864;28;20044;-69
2021/12/11 10:51:05;;;;;;;44.40;26.02;;;;;;;8.77;100.00;101568.97;5087358;28;20020;-70
2021/12/11 10:53:31;;;;;;;37.88;21.90;;;;;;;9.21;94.95;101580.38;5090954;28;20028;-70
2021/12/11 10:55:59;;;;;;;35.63;21.40;;;;;;;9.72;92.27;101577.50;5091013;28;20020;-71
2021/12/11 10:58:30;;;;;;;35.33;21.98;;;;;;;10.47;89.06;101568.63;5100117;28;20023;-69
2021/12/11 11:00:58;;;;;;;32.20;20.50;;;;;;;11.93;84.27;101577.47;5090170;28;20024;-69
2021/12/11 11:03:28;;;;;;;28.25;17.63;;;;;;;12.07;76.18;101577.13;5094006;28;20081;-69
2021/12/11 11:05:53;;;;;;;26.33;16.70;;;;;;;11.38;79.16;101583.22;5091907;28;20051;-70
2021/12/11 11:08:19;;;;;;;29.55;18.20;;;;;;;11.72;79.29;101583.63;5071695;28;20062;-70
2021/12/11 11:10:51;;;;;;;27.30;16.02;;;;;;;13.18;75.80;101594.31;5094030;28;20076;-70
2021/12/11 11:13:19;;;;;;;24.98;15.20;;;;;;;14.30;68.57;101577.50;5091525;28;20062;-69
2021/12/11 11:15:44;;;;;;;21.77;13.82;;;;;;;14.58;65.67;101593.72;5091184;28;20036;-72
2021/12/11 11:18:13;;;;;;;24.33;14.43;;;;;;;13.70;68.00;101588.03;5089725;28;20073;-69
2021/12/11 11:20:45;;;;;;;20.27;14.25;;;;;;;12.50;74.01;101606.00;5084951;28;20031;-69
2021/12/11 11:23:11;;;;;;;22.08;13.10;;;;;;;11.06;74.35;101610.38;5089783;28;20028;-68
2021/12/11 11:25:41;;;;;;;18.27;12.15;;;;;;;10.09;77.70;101623.59;5091927;28;20435;-71
2021/12/11 11:28:11;;;;;;;25.00;13.18;;;;;;;9.61;84.07;101626.69;5093129;28;20081;-70
2021/12/11 11:30:42;;;;;;;20.67;12.95;;;;;;;9.45;85.85;101628.50;5093818;28;20032;-69
2021/12/11 11:33:10;;;;;;;21.17;12.45;;;;;;;9.23;84.33;101621.53;5089805;28;20502;-69